createdAt,value
2023-03-01T00:01:22.747Z,81.75
2023-03-01T00:03:50.405Z,81.33
2023-03-01T00:06:17.818Z,81.38
2023-03-01T00:08:45.061Z,81.11
2023-03-01T00:11:16.391Z,81.05
2023-03-01T00:13:44.432Z,81.22
2023-03-01T00:16:15.224Z,81.32
2023-03-01T00:18:42.408Z,80.89
2023-03-01T00:21:09.607Z,80.95
2023-03-01T00:23:37.628Z,80.53
2023-03-01T00:26:09.266Z,80.48
2023-03-01T00:28:36.453Z,81.14
2023-03-01T00:31:08.936Z,81.96
2023-03-01T00:33:35.887Z,82.06
2023-03-01T00:36:04.201Z,81.83
2023-03-01T00:38:32.088Z,81.96
2023-03-01T00:41:08.643Z,82.10
2023-03-01T00:43:37.879Z,82.36
2023-03-01T00:46:11.277Z,82.59
2023-03-01T00:48:38.678Z,82.17
2023-03-01T00:51:14.857Z,82.62
2023-03-01T00:53:42.305Z,82.48
2023-03-01T00:56:12.197Z,83.36
2023-03-01T00:58:39.328Z,83.51
2023-03-01T01:01:20.598Z,82.70
2023-03-01T01:04:00.256Z,82.77
2023-03-01T01:06:34.213Z,82.48
2023-03-01T01:09:13.824Z,81.60
2023-03-01T01:11:40.908Z,82.41
2023-03-01T01:14:07.891Z,82.09
2023-03-01T01:16:34.749Z,82.41
2023-03-01T01:19:01.706Z,82.14
2023-03-01T01:21:29.136Z,81.57
2023-03-01T01:23:57.623Z,81.88
2023-03-01T01:26:27.529Z,81.78
2023-03-01T01:28:55.604Z,81.85
2023-03-01T01:31:27.127Z,81.39
2023-03-01T01:33:55.017Z,81.47
2023-03-01T01:36:25.953Z,81.70
2023-03-01T01:38:53.004Z,81.38
2023-03-01T01:41:21.371Z,81.72
2023-03-01T01:44:09.604Z,81.80
2023-03-01T01:46:40.294Z,81.58
2023-03-01T01:49:26.536Z,81.38
2023-03-01T01:52:12.015Z,81.51
2023-03-01T01:54:53.523Z,82.01
2023-03-01T01:57:27.542Z,81.76
2023-03-01T01:59:59.908Z,81.82
2023-03-01T02:02:27.870Z,81.37
2023-03-01T02:05:05.056Z,81.75
2023-03-01T02:07:32.282Z,81.44
2023-03-01T02:09:59.979Z,81.72
2023-03-01T02:12:27.342Z,81.72
2023-03-01T02:14:57.120Z,81.66
2023-03-01T02:17:25.885Z,81.97
2023-03-01T02:20:25.394Z,82.06
2023-03-01T02:22:54.879Z,81.90
2023-03-01T02:25:48.114Z,81.87
2023-03-01T02:28:14.915Z,81.83
2023-03-01T02:31:05.355Z,81.09
2023-03-01T02:33:34.028Z,81.34
2023-03-01T02:36:08.161Z,81.66
2023-03-01T02:38:35.210Z,82.23
2023-03-01T02:41:04.876Z,82.18
2023-03-01T02:43:34.216Z,82.68
2023-03-01T02:46:08.478Z,82.63
2023-03-01T02:48:44.726Z,82.74
2023-03-01T02:51:28.990Z,82.57
2023-03-01T02:54:08.199Z,82.31
2023-03-01T02:56:36.032Z,82.31
2023-03-01T02:59:03.880Z,82.25
2023-03-01T03:05:24.593Z,82.25
2023-03-01T03:07:51.921Z,81.81
2023-03-01T03:10:25.750Z,81.88
2023-03-01T03:12:58.481Z,81.93
2023-03-01T03:15:27.211Z,82.14
2023-03-01T03:17:54.570Z,82.06
2023-03-01T03:20:25.780Z,81.95
2023-03-01T03:22:55.836Z,81.99
2023-03-01T03:25:23.601Z,81.92
2023-03-01T03:27:57.948Z,80.24
2023-03-01T03:30:31.559Z,80.26
2023-03-01T03:33:00.264Z,80.60
2023-03-01T03:35:34.036Z,80.96
2023-03-01T03:38:06.901Z,80.67
2023-03-01T03:40:35.473Z,80.63
2023-03-01T03:43:03.607Z,80.59
2023-03-01T03:45:30.618Z,80.62
2023-03-01T03:47:57.640Z,80.80
2023-03-01T03:50:24.684Z,80.46
2023-03-01T03:52:52.361Z,80.86
2023-03-01T03:55:20.509Z,81.46
2023-03-01T03:57:52.754Z,81.74
2023-03-01T04:00:22.253Z,81.81
2023-03-01T04:02:49.973Z,81.61
2023-03-01T04:05:19.122Z,82.05
2023-03-01T04:07:47.064Z,82.08
2023-03-01T04:10:19.222Z,81.82
2023-03-01T04:12:46.141Z,81.64
2023-03-01T04:15:16.282Z,81.63
2023-03-01T04:17:47.928Z,81.87
2023-03-01T04:20:26.161Z,82.00
2023-03-01T04:23:22.739Z,82.15
2023-03-01T04:25:56.609Z,82.39
2023-03-01T04:28:32.351Z,81.98
2023-03-01T04:30:59.965Z,82.63
2023-03-01T04:33:29.813Z,82.42
2023-03-01T04:35:59.489Z,82.04
2023-03-01T04:38:26.665Z,82.06
2023-03-01T04:40:53.425Z,81.84
2023-03-01T04:43:20.375Z,81.65
2023-03-01T04:45:47.344Z,81.70
2023-03-01T04:48:14.136Z,81.81
2023-03-01T04:50:44.078Z,82.02
2023-03-01T04:53:11.150Z,81.93
2023-03-01T04:55:38.171Z,82.43
2023-03-01T04:58:05.053Z,81.87
2023-03-01T05:00:32.188Z,81.34
2023-03-01T05:03:01.722Z,80.64
2023-03-01T05:05:32.521Z,80.32
2023-03-01T05:08:01.669Z,79.14
2023-03-01T05:10:34.055Z,78.83
2023-03-01T05:13:00.985Z,79.11
2023-03-01T05:15:29.892Z,78.77
2023-03-01T05:18:02.219Z,78.88
2023-03-01T05:20:31.180Z,79.07
2023-03-01T05:23:00.555Z,78.78
2023-03-01T05:25:34.271Z,79.28
2023-03-01T05:28:05.542Z,77.79
2023-03-01T05:30:34.574Z,78.09
2023-03-01T05:33:02.185Z,78.38
2023-03-01T05:35:30.780Z,78.68
2023-03-01T05:37:57.793Z,78.84
2023-03-01T05:40:25.423Z,78.41
2023-03-01T05:42:57.858Z,77.63
2023-03-01T05:45:26.916Z,77.75
2023-03-01T05:47:56.211Z,77.88
2023-03-01T05:50:28.581Z,78.40
2023-03-01T05:53:00.114Z,77.85
2023-03-01T05:55:29.155Z,76.99
2023-03-01T05:57:56.984Z,77.39
2023-03-01T06:00:23.916Z,78.23
2023-03-01T06:02:53.047Z,78.50
2023-03-01T06:05:19.879Z,77.87
2023-03-01T06:07:46.806Z,77.78
2023-03-01T06:10:14.829Z,78.06
2023-03-01T06:12:43.583Z,78.09
2023-03-01T06:15:13.524Z,78.72
2023-03-01T06:17:42.550Z,78.28
2023-03-01T06:20:15.772Z,78.04
2023-03-01T06:22:43.520Z,78.35
2023-03-01T06:25:12.100Z,78.13
2023-03-01T06:27:41.960Z,77.38
2023-03-01T06:30:13.388Z,77.44
2023-03-01T06:32:43.219Z,77.04
2023-03-01T06:35:14.821Z,77.20
2023-03-01T06:37:42.602Z,77.22
2023-03-01T06:40:12.843Z,76.19
2023-03-01T06:42:42.493Z,76.35
2023-03-01T06:45:10.354Z,75.60
2023-03-01T06:47:37.456Z,76.08
2023-03-01T06:50:05.501Z,75.39
2023-03-01T06:55:00.221Z,74.89
2023-03-01T06:57:27.507Z,74.40
2023-03-01T06:59:54.636Z,73.79
2023-03-01T07:02:21.843Z,74.38
2023-03-01T07:04:51.450Z,75.03
2023-03-01T07:07:19.434Z,74.02
2023-03-01T07:09:47.042Z,73.53
2023-03-01T07:12:14.088Z,74.16
2023-03-01T07:14:41.328Z,73.53
2023-03-01T07:17:09.782Z,72.78
2023-03-01T07:19:36.616Z,72.45
2023-03-01T07:22:05.630Z,72.08
2023-03-01T07:24:32.577Z,72.87
2023-03-01T07:26:59.393Z,72.49
2023-03-01T07:29:26.357Z,71.88
2023-03-01T07:31:53.364Z,71.92
2023-03-01T07:34:20.276Z,71.44
2023-03-01T07:36:47.226Z,69.61
2023-03-01T07:39:14.475Z,69.64
2023-03-01T07:41:41.305Z,69.11
2023-03-01T07:44:08.298Z,68.74
2023-03-01T07:46:35.189Z,68.53
2023-03-01T07:49:02.285Z,68.09
2023-03-01T07:51:29.066Z,67.86
2023-03-01T07:53:55.924Z,68.55
2023-03-01T07:56:23.256Z,68.06
2023-03-01T07:58:51.218Z,67.57
2023-03-01T08:01:21.580Z,66.10
2023-03-01T08:03:49.373Z,64.72
2023-03-01T08:06:17.828Z,64.81
2023-03-01T08:08:45.596Z,61.95
2023-03-01T08:11:15.667Z,61.74
2023-03-01T08:13:43.884Z,60.90
2023-03-01T08:16:16.348Z,61.89
2023-03-01T08:18:44.424Z,62.06
2023-03-01T08:21:13.872Z,61.68
2023-03-01T08:23:42.230Z,61.10
2023-03-01T08:26:21.057Z,61.63
2023-03-01T08:28:49.604Z,60.52
2023-03-01T08:31:16.550Z,60.54
2023-03-01T08:33:43.954Z,60.51
2023-03-01T08:36:11.211Z,59.50
2023-03-01T08:38:38.042Z,55.59
2023-03-01T08:41:05.454Z,54.90
2023-03-01T08:43:32.550Z,54.71
2023-03-01T08:45:59.402Z,54.15
2023-03-01T08:48:31.348Z,50.76
2023-03-01T08:50:59.395Z,50.15
2023-03-01T08:53:29.273Z,48.37
2023-03-01T08:55:56.159Z,49.76
2023-03-01T08:58:23.144Z,52.12
2023-03-01T09:00:50.183Z,53.64
2023-03-01T09:03:17.843Z,54.50
2023-03-01T09:05:47.145Z,55.06
2023-03-01T09:08:14.372Z,55.68
2023-03-01T09:10:41.445Z,54.91
2023-03-01T09:13:08.218Z,55.01
2023-03-01T09:15:35.335Z,53.24
2023-03-01T09:18:02.474Z,53.30
2023-03-01T09:20:30.760Z,54.72
2023-03-01T09:22:57.760Z,54.08
2023-03-01T09:25:25.074Z,54.50
2023-03-01T09:27:53.593Z,54.33
2023-03-01T09:30:21.492Z,53.98
2023-03-01T09:32:48.960Z,54.46
2023-03-01T09:35:17.218Z,54.91
2023-03-01T09:37:44.185Z,55.50
2023-03-01T09:40:17.827Z,54.84
2023-03-01T09:42:57.785Z,55.37
2023-03-01T09:45:35.138Z,55.75
2023-03-01T09:48:05.116Z,54.58
2023-03-01T09:50:42.321Z,55.93
2023-03-01T09:53:17.097Z,55.75
2023-03-01T09:55:47.580Z,57.67
2023-03-01T09:58:38.238Z,57.55
2023-03-01T10:01:34.044Z,58.10
2023-03-01T10:04:31.909Z,57.96
2023-03-01T10:07:11.150Z,57.83
2023-03-01T10:09:41.481Z,57.85
2023-03-01T10:12:25.692Z,57.93
2023-03-01T10:15:43.437Z,57.97
2023-03-01T10:18:41.081Z,57.95
2023-03-01T10:21:18.299Z,59.43
2023-03-01T10:23:45.654Z,60.69
2023-03-01T10:26:41.130Z,60.71
2023-03-01T10:29:10.250Z,61.14
2023-03-01T10:31:45.692Z,62.14
2023-03-01T10:34:28.199Z,61.34
2023-03-01T10:36:59.484Z,61.32
2023-03-01T10:39:27.957Z,61.33
2023-03-01T10:42:07.445Z,61.30
2023-03-01T10:44:49.032Z,61.36
2023-03-01T10:47:24.565Z,60.91
2023-03-01T10:50:04.412Z,61.66
2023-03-01T10:52:41.903Z,62.25
2023-03-01T10:55:18.125Z,63.64
2023-03-01T10:57:44.980Z,62.65
2023-03-01T11:00:20.546Z,63.88
2023-03-01T11:03:18.459Z,63.05
2023-03-01T11:06:14.422Z,61.75
2023-03-01T11:08:52.054Z,61.14
2023-03-01T11:11:21.854Z,60.07
2023-03-01T11:14:03.168Z,60.19
2023-03-01T11:16:41.162Z,59.14
2023-03-01T11:19:11.046Z,58.72
2023-03-01T11:21:48.689Z,58.42
2023-03-01T11:24:18.561Z,57.73
2023-03-01T11:27:09.102Z,57.60
2023-03-01T11:29:48.858Z,56.48
2023-03-01T11:32:17.103Z,55.02
2023-03-01T11:35:19.529Z,57.59
2023-03-01T11:38:11.915Z,57.31
2023-03-01T11:41:09.388Z,57.37
2023-03-01T11:43:55.165Z,58.81
2023-03-01T11:46:34.911Z,60.20
2023-03-01T11:49:36.324Z,60.07
2023-03-01T11:52:29.651Z,59.68
2023-03-01T11:55:11.152Z,58.91
2023-03-01T11:57:52.432Z,57.30
2023-03-01T12:00:38.218Z,56.80
2023-03-01T12:03:32.371Z,57.55
2023-03-01T12:06:29.618Z,60.41
2023-03-01T12:09:17.951Z,62.79
2023-03-01T12:12:11.759Z,61.76
2023-03-01T12:15:04.528Z,60.47
2023-03-01T12:18:00.938Z,60.29
2023-03-01T12:20:37.948Z,59.52
2023-03-01T12:23:19.626Z,58.50
2023-03-01T12:25:56.002Z,60.87
2023-03-01T12:28:50.511Z,61.01
2023-03-01T12:31:58.918Z,60.64
2023-03-01T12:34:48.426Z,60.97
2023-03-01T12:37:36.713Z,61.60
2023-03-01T12:40:42.671Z,61.07
2023-03-01T12:43:25.629Z,62.16
2023-03-01T12:46:08.500Z,59.45
2023-03-01T12:48:53.130Z,57.36
2023-03-01T12:51:25.642Z,58.33
2023-03-01T12:53:56.382Z,58.59
2023-03-01T12:56:26.072Z,58.00
2023-03-01T12:59:04.598Z,59.80
2023-03-01T13:01:53.393Z,59.14
2023-03-01T13:04:20.343Z,57.75
2023-03-01T13:06:59.384Z,58.42
2023-03-01T13:09:45.572Z,57.89
2023-03-01T13:12:44.286Z,59.45
2023-03-01T13:15:23.147Z,58.58
2023-03-01T13:17:52.672Z,57.07
2023-03-01T13:20:47.238Z,55.90
2023-03-01T13:23:22.909Z,56.03
2023-03-01T13:26:17.359Z,56.30
2023-03-01T13:28:57.914Z,56.56
2023-03-01T13:31:27.650Z,57.66
2023-03-01T13:34:02.088Z,57.78
2023-03-01T13:36:29.144Z,56.51
2023-03-01T13:38:59.975Z,57.41
2023-03-01T13:41:45.019Z,57.04
2023-03-01T13:44:29.936Z,56.44
2023-03-01T13:47:18.659Z,54.42
2023-03-01T13:49:51.389Z,54.42
2023-03-01T13:52:41.676Z,54.70
2023-03-01T13:55:20.404Z,56.68
2023-03-01T13:57:54.877Z,57.83
2023-03-01T14:00:41.449Z,58.73
2023-03-01T14:03:20.117Z,61.34
2023-03-01T14:06:19.080Z,62.88
2023-03-01T14:08:50.736Z,64.35
2023-03-01T14:11:55.958Z,65.96
2023-03-01T14:14:40.193Z,66.39
2023-03-01T14:17:34.583Z,66.20
2023-03-01T14:20:23.620Z,67.45
2023-03-01T14:22:55.275Z,68.06
2023-03-01T14:25:25.795Z,67.72
2023-03-01T14:28:17.651Z,68.25
2023-03-01T14:30:47.823Z,68.30
2023-03-01T14:33:25.442Z,68.11
2023-03-01T14:36:07.711Z,68.49
2023-03-01T14:38:44.106Z,68.40
2023-03-01T14:41:19.829Z,69.21
2023-03-01T14:44:02.457Z,68.87
2023-03-01T14:46:36.343Z,69.35
2023-03-01T14:49:13.521Z,69.34
2023-03-01T14:51:42.878Z,68.89
2023-03-01T14:54:27.977Z,69.86
2023-03-01T14:56:59.310Z,69.78
2023-03-01T14:59:26.606Z,70.16
2023-03-01T15:01:57.471Z,70.19
2023-03-01T15:04:28.485Z,70.72
2023-03-01T15:07:06.339Z,70.12
2023-03-01T15:09:37.691Z,70.42
2023-03-01T15:12:35.449Z,70.12
2023-03-01T15:15:04.689Z,71.26
2023-03-01T15:17:35.657Z,71.30
2023-03-01T15:20:05.689Z,71.18
2023-03-01T15:22:32.783Z,71.63
2023-03-01T15:25:00.280Z,71.40
2023-03-01T15:27:28.846Z,72.31
2023-03-01T15:30:00.584Z,72.33
2023-03-01T15:32:40.339Z,72.71
2023-03-01T15:35:49.245Z,73.41
2023-03-01T15:38:55.518Z,74.16
2023-03-01T15:41:33.764Z,73.61
2023-03-01T15:44:15.443Z,73.52
2023-03-01T15:46:48.444Z,73.55
2023-03-01T15:49:30.857Z,73.73
2023-03-01T15:51:58.182Z,74.08
2023-03-01T15:54:30.188Z,74.77
2023-03-01T15:56:57.372Z,74.39
2023-03-01T15:59:24.580Z,74.41
2023-03-01T16:01:54.534Z,75.26
2023-03-01T16:04:22.114Z,75.15
2023-03-01T16:06:55.456Z,75.54
2023-03-01T16:09:27.279Z,75.76
2023-03-01T16:11:55.221Z,75.23
2023-03-01T16:14:22.366Z,75.77
2023-03-01T16:16:54.960Z,76.61
2023-03-01T16:19:22.116Z,76.24
2023-03-01T16:21:50.548Z,75.86
2023-03-01T16:24:18.337Z,77.00
2023-03-01T16:26:47.734Z,76.46
2023-03-01T16:29:17.752Z,77.01
2023-03-01T16:31:44.808Z,76.99
2023-03-01T16:34:12.071Z,76.97
2023-03-01T16:36:39.997Z,76.89
2023-03-01T16:39:07.708Z,77.59
2023-03-01T16:41:34.669Z,78.01
2023-03-01T16:44:04.521Z,77.56
2023-03-01T16:46:31.430Z,79.07
2023-03-01T16:48:58.590Z,78.50
2023-03-01T16:51:26.172Z,78.89
2023-03-01T16:53:56.144Z,78.26
2023-03-01T16:56:23.026Z,79.33
2023-03-01T16:58:49.946Z,78.79
2023-03-01T17:01:21.661Z,79.18
2023-03-01T17:03:50.720Z,79.78
2023-03-01T17:06:21.756Z,79.59
2023-03-01T17:08:48.810Z,80.25
2023-03-01T17:11:19.670Z,79.60
2023-03-01T17:13:47.035Z,79.89
2023-03-01T17:16:17.511Z,80.44
2023-03-01T17:18:44.988Z,79.84
2023-03-01T17:21:12.767Z,80.56
2023-03-01T17:23:42.326Z,79.88
2023-03-01T17:26:09.656Z,80.96
2023-03-01T17:28:37.843Z,81.34
2023-03-01T17:31:07.051Z,80.82
2023-03-01T17:33:34.220Z,81.43
2023-03-01T17:36:05.722Z,81.30
2023-03-01T17:38:32.559Z,80.40
2023-03-01T17:41:01.858Z,80.97
2023-03-01T17:43:29.307Z,80.25
2023-03-01T17:45:57.496Z,81.17
2023-03-01T17:48:24.587Z,81.31
2023-03-01T17:50:51.526Z,81.66
2023-03-01T17:53:18.485Z,82.01
2023-03-01T17:55:45.521Z,82.24
2023-03-01T17:58:14.279Z,82.58
2023-03-01T18:00:41.462Z,82.71
2023-03-01T18:03:08.812Z,82.76
2023-03-01T18:05:38.153Z,81.91
2023-03-01T18:08:08.445Z,82.63
2023-03-01T18:10:36.872Z,82.37
2023-03-01T18:13:05.262Z,82.87
2023-03-01T18:15:33.597Z,82.63
2023-03-01T18:18:00.450Z,82.78
2023-03-01T18:20:28.152Z,83.13
2023-03-01T18:22:55.132Z,83.12
2023-03-01T18:25:22.295Z,82.46
2023-03-01T18:27:51.666Z,83.80
2023-03-01T18:30:19.209Z,83.91
2023-03-01T18:32:46.163Z,83.52
2023-03-01T18:35:13.221Z,83.81
2023-03-01T18:37:41.469Z,83.85
2023-03-01T18:40:13.157Z,83.60
2023-03-01T18:42:40.978Z,84.33
2023-03-01T18:45:08.418Z,83.83
2023-03-01T18:47:35.221Z,84.33
2023-03-01T18:50:02.400Z,83.74
2023-03-01T18:52:29.279Z,84.07
2023-03-01T18:54:56.770Z,84.15
2023-03-01T18:57:23.760Z,83.86
2023-03-01T18:59:50.503Z,83.80
2023-03-01T19:02:17.703Z,83.85
2023-03-01T19:04:44.550Z,84.08
2023-03-01T19:07:12.784Z,84.44
2023-03-01T19:09:40.408Z,84.86
2023-03-01T19:12:07.755Z,85.02
2023-03-01T19:14:35.384Z,84.20
2023-03-01T19:17:02.394Z,85.19
2023-03-01T19:19:32.289Z,86.29
2023-03-01T19:22:05.775Z,85.64
2023-03-01T19:24:33.234Z,86.14
2023-03-01T19:27:02.526Z,85.64
2023-03-01T19:29:29.951Z,84.24
2023-03-01T19:31:56.879Z,85.94
2023-03-01T19:34:25.764Z,85.44
2023-03-01T19:36:54.366Z,85.66
2023-03-01T19:39:26.587Z,86.27
2023-03-01T19:41:56.848Z,85.97
2023-03-01T19:44:25.539Z,85.79
2023-03-01T19:46:54.546Z,84.26
2023-03-01T19:49:21.803Z,85.19
2023-03-01T19:51:48.791Z,84.28
2023-03-01T19:54:20.412Z,84.03
2023-03-01T19:56:48.220Z,83.83
2023-03-01T19:59:15.866Z,84.41
2023-03-01T20:01:42.848Z,83.89
2023-03-01T20:04:13.558Z,82.92
2023-03-01T20:06:42.077Z,83.13
2023-03-01T20:09:21.942Z,82.89
2023-03-01T20:11:49.981Z,82.54
2023-03-01T20:14:17.131Z,83.17
2023-03-01T20:16:43.951Z,84.06
2023-03-01T20:19:11.237Z,82.22
2023-03-01T20:21:38.347Z,83.14
2023-03-01T20:24:05.634Z,82.46
2023-03-01T20:26:35.826Z,83.01
2023-03-01T20:29:12.784Z,82.24
2023-03-01T20:31:41.714Z,82.36
2023-03-01T20:34:08.913Z,83.01
2023-03-01T20:36:38.587Z,83.30
2023-03-01T20:39:05.617Z,84.65
2023-03-01T20:41:35.924Z,84.92
2023-03-01T20:44:04.767Z,85.93
2023-03-01T20:46:33.322Z,85.79
2023-03-01T20:49:00.768Z,85.72
2023-03-01T20:51:27.698Z,85.10
2023-03-01T20:53:54.902Z,85.48
2023-03-01T20:56:27.281Z,86.26
2023-03-01T20:58:58.608Z,86.42
2023-03-01T21:01:25.935Z,86.52
2023-03-01T21:03:53.108Z,86.09
2023-03-01T21:06:20.280Z,86.50
2023-03-01T21:08:47.158Z,87.34
2023-03-01T21:11:16.287Z,87.08
2023-03-01T21:13:45.040Z,86.55
2023-03-01T21:16:17.120Z,87.24
2023-03-01T21:18:44.391Z,87.58
2023-03-01T21:21:14.507Z,87.13
2023-03-01T21:23:42.673Z,87.66
2023-03-01T21:26:28.248Z,86.31
2023-03-01T21:29:03.449Z,85.47
2023-03-01T21:31:35.388Z,85.19
2023-03-01T21:34:06.329Z,85.10
2023-03-01T21:36:37.102Z,84.64
2023-03-01T21:39:07.189Z,83.69
2023-03-01T21:41:37.074Z,83.72
2023-03-01T21:44:06.464Z,84.41
2023-03-01T21:46:36.926Z,84.51
2023-03-01T21:49:05.231Z,84.27
2023-03-01T21:51:32.456Z,83.69
2023-03-01T21:54:03.317Z,84.49
2023-03-01T21:56:34.841Z,84.03
2023-03-01T21:59:02.296Z,82.73
2023-03-01T22:01:34.758Z,83.24
2023-03-01T22:04:03.485Z,83.04
2023-03-01T22:06:38.340Z,83.72
2023-03-01T22:09:09.159Z,83.20
2023-03-01T22:11:39.748Z,83.09
2023-03-01T22:14:07.264Z,83.79
2023-03-01T22:16:36.699Z,83.49
2023-03-01T22:19:05.014Z,83.54
2023-03-01T22:21:31.845Z,82.49
2023-03-01T22:23:59.180Z,83.00
2023-03-01T22:26:35.589Z,84.40
2023-03-01T22:29:05.915Z,85.05
2023-03-01T22:31:34.334Z,84.13
2023-03-01T22:34:06.753Z,84.59
2023-03-01T22:36:34.457Z,84.19
2023-03-01T22:39:02.299Z,83.30
2023-03-01T22:41:32.261Z,82.91
2023-03-01T22:43:59.269Z,82.33
2023-03-01T22:46:27.791Z,83.28
2023-03-01T22:48:56.928Z,83.39
2023-03-01T22:51:30.995Z,82.53
2023-03-01T22:53:58.309Z,81.73
2023-03-01T22:56:32.143Z,82.44
2023-03-01T22:59:02.472Z,82.31
2023-03-01T23:01:30.841Z,82.96
2023-03-01T23:03:58.571Z,82.88
2023-03-01T23:06:26.251Z,82.56
2023-03-01T23:08:57.553Z,82.14
2023-03-01T23:11:26.643Z,82.80
2023-03-01T23:13:54.941Z,82.65
2023-03-01T23:16:26.887Z,81.85
2023-03-01T23:18:59.386Z,82.17
2023-03-01T23:21:26.567Z,82.07
2023-03-01T23:23:56.252Z,82.70
2023-03-01T23:26:27.198Z,82.32
2023-03-01T23:28:55.767Z,82.24
2023-03-01T23:31:23.058Z,82.66
2023-03-01T23:33:50.108Z,82.27
2023-03-01T23:36:23.877Z,82.16
2023-03-01T23:38:54.244Z,82.04
2023-03-01T23:41:23.648Z,82.90
2023-03-01T23:43:54.124Z,83.31
2023-03-01T23:46:23.416Z,82.35
2023-03-01T23:48:50.693Z,84.03
2023-03-01T23:51:18.758Z,83.75
2023-03-01T23:53:54.706Z,85.08
2023-03-01T23:56:41.844Z,85.93
2023-03-01T23:59:20.564Z,85.66
